sensor_id;sensor_type;location;lat;lon;timestamp;pressure;altitude;pressure_sealevel;temperature;humidity
71966;BME280;59836;52.132;5.442;2023-03-03T00:01:25;102610.09;;;2.22;85.65
71966;BME280;59836;52.132;5.442;2023-03-03T00:03:52;102612.44;;;2.17;85.96
71966;BME280;59836;52.132;5.442;2023-03-03T00:06:19;102619.13;;;2.13;86.10
71966;BME280;59836;52.132;5.442;2023-03-03T00:08:46;102613.78;;;2.13;86.16
71966;BME280;59836;52.132;5.442;2023-03-03T00:11:12;102617.13;;;2.15;86.38
71966;BME280;59836;52.132;5.442;2023-03-03T00:13:51;102618.44;;;2.19;86.45
71966;BME280;59836;52.132;5.442;2023-03-03T00:18:51;102611.22;;;2.28;86.18
71966;BME280;59836;52.132;5.442;2023-03-03T00:21:31;102616.75;;;2.34;86.51
71966;BME280;59836;52.132;5.442;2023-03-03T00:24:23;102620.75;;;2.39;86.50
71966;BME280;59836;52.132;5.442;2023-03-03T00:26:53;102621.78;;;2.38;86.43
71966;BME280;59836;52.132;5.442;2023-03-03T00:34:42;102637.16;;;2.35;86.28
71966;BME280;59836;52.132;5.442;2023-03-03T00:37:31;102634.81;;;2.32;86.26
71966;BME280;59836;52.132;5.442;2023-03-03T00:42:50;102635.50;;;2.26;86.24
71966;BME280;59836;52.132;5.442;2023-03-03T00:45:24;102629.81;;;2.29;86.02
71966;BME280;59836;52.132;5.442;2023-03-03T00:47:52;102632.84;;;2.26;86.28
71966;BME280;59836;52.132;5.442;2023-03-03T00:50:34;102637.19;;;2.27;86.32
71966;BME280;59836;52.132;5.442;2023-03-03T00:53:28;102633.84;;;2.25;86.24
71966;BME280;59836;52.132;5.442;2023-03-03T00:55:56;102635.84;;;2.23;86.44
71966;BME280;59836;52.132;5.442;2023-03-03T00:58:23;102640.53;;;2.21;86.60
71966;BME280;59836;52.132;5.442;2023-03-03T01:00:52;102636.84;;;2.22;86.41
71966;BME280;59836;52.132;5.442;2023-03-03T01:03:21;102637.00;;;2.20;86.48
71966;BME280;59836;52.132;5.442;2023-03-03T01:05:48;102636.34;;;2.18;86.56
71966;BME280;59836;52.132;5.442;2023-03-03T01:08:15;102643.69;;;2.25;86.70
71966;BME280;59836;52.132;5.442;2023-03-03T01:10:45;102643.53;;;2.26;86.11
71966;BME280;59836;52.132;5.442;2023-03-03T01:13:13;102641.69;;;2.27;86.43
71966;BME280;59836;52.132;5.442;2023-03-03T01:15:40;102642.53;;;2.27;86.17
71966;BME280;59836;52.132;5.442;2023-03-03T01:18:06;102648.38;;;2.31;86.04
71966;BME280;59836;52.132;5.442;2023-03-03T01:20:34;102650.22;;;2.30;85.98
71966;BME280;59836;52.132;5.442;2023-03-03T01:23:01;102641.19;;;2.31;86.31
71966;BME280;59836;52.132;5.442;2023-03-03T01:25:27;102644.03;;;2.30;86.22
71966;BME280;59836;52.132;5.442;2023-03-03T01:27:53;102643.03;;;2.31;86.12
71966;BME280;59836;52.132;5.442;2023-03-03T01:30:20;102641.84;;;2.33;86.31
71966;BME280;59836;52.132;5.442;2023-03-03T01:32:47;102637.84;;;2.29;86.31
71966;BME280;59836;52.132;5.442;2023-03-03T01:35:14;102640.00;;;2.26;86.30
71966;BME280;59836;52.132;5.442;2023-03-03T01:37:40;102643.53;;;2.26;86.31
71966;BME280;59836;52.132;5.442;2023-03-03T01:40:12;102644.34;;;2.27;86.50
71966;BME280;59836;52.132;5.442;2023-03-03T01:42:40;102637.19;;;2.27;86.15
71966;BME280;59836;52.132;5.442;2023-03-03T01:47:48;102639.19;;;2.25;86.38
71966;BME280;59836;52.132;5.442;2023-03-03T01:50:28;102646.56;;;2.23;86.33
71966;BME280;59836;52.132;5.442;2023-03-03T01:52:57;102643.69;;;2.25;86.44
71966;BME280;59836;52.132;5.442;2023-03-03T01:55:29;102643.53;;;2.18;86.15
71966;BME280;59836;52.132;5.442;2023-03-03T01:58:06;102649.56;;;2.20;86.36
71966;BME280;59836;52.132;5.442;2023-03-03T02:00:37;102646.56;;;2.23;86.20
71966;BME280;59836;52.132;5.442;2023-03-03T02:03:04;102650.91;;;2.24;86.14
71966;BME280;59836;52.132;5.442;2023-03-03T02:05:32;102641.19;;;2.23;86.71
71966;BME280;59836;52.132;5.442;2023-03-03T02:08:00;102650.22;;;2.22;86.52
71966;BME280;59836;52.132;5.442;2023-03-03T02:10:27;102650.91;;;2.24;86.18
71966;BME280;59836;52.132;5.442;2023-03-03T02:12:55;102645.38;;;2.26;86.38
71966;BME280;59836;52.132;5.442;2023-03-03T02:15:55;102642.34;;;2.20;86.27
71966;BME280;59836;52.132;5.442;2023-03-03T02:18:16;102646.88;;;2.20;86.80
71966;BME280;59836;52.132;5.442;2023-03-03T02:21:18;102647.03;;;2.18;86.58
71966;BME280;59836;52.132;5.442;2023-03-03T02:23:54;102649.56;;;2.20;86.73
71966;BME280;59836;52.132;5.442;2023-03-03T02:26:25;102636.53;;;2.17;86.47
71966;BME280;59836;52.132;5.442;2023-03-03T02:28:52;102643.53;;;2.18;86.65
71966;BME280;59836;52.132;5.442;2023-03-03T02:31:21;102641.88;;;2.17;86.53
71966;BME280;59836;52.132;5.442;2023-03-03T02:33:51;102646.56;;;2.15;86.38
71966;BME280;59836;52.132;5.442;2023-03-03T02:36:20;102645.22;;;2.19;86.55
71966;BME280;59836;52.132;5.442;2023-03-03T02:41:29;102647.22;;;2.17;86.35
71966;BME280;59836;52.132;5.442;2023-03-03T02:44:15;102644.22;;;2.12;85.96
71966;BME280;59836;52.132;5.442;2023-03-03T02:46:45;102648.22;;;2.08;85.79
71966;BME280;59836;52.132;5.442;2023-03-03T02:49:15;102641.19;;;2.06;85.85
71966;BME280;59836;52.132;5.442;2023-03-03T02:51:42;102652.75;;;2.07;85.77
71966;BME280;59836;52.132;5.442;2023-03-03T02:54:10;102652.91;;;2.05;85.81
71966;BME280;59836;52.132;5.442;2023-03-03T02:56:37;102641.53;;;2.03;85.66
71966;BME280;59836;52.132;5.442;2023-03-03T02:59:04;102648.22;;;1.99;85.66
71966;BME280;59836;52.132;5.442;2023-03-03T03:01:30;102644.41;;;2.02;85.71
71966;BME280;59836;52.132;5.442;2023-03-03T03:04:13;102656.59;;;1.96;86.16
71966;BME280;59836;52.132;5.442;2023-03-03T03:06:40;102652.41;;;1.94;86.28
71966;BME280;59836;52.132;5.442;2023-03-03T03:09:08;102655.25;;;1.92;86.31
71966;BME280;59836;52.132;5.442;2023-03-03T03:11:34;102658.94;;;1.91;86.39
71966;BME280;59836;52.132;5.442;2023-03-03T03:14:02;102653.91;;;1.88;86.37
71966;BME280;59836;52.132;5.442;2023-03-03T03:16:28;102650.22;;;1.89;86.35
71966;BME280;59836;52.132;5.442;2023-03-03T03:18:58;102657.25;;;1.90;86.36
71966;BME280;59836;52.132;5.442;2023-03-03T03:21:25;102648.41;;;1.89;86.06
71966;BME280;59836;52.132;5.442;2023-03-03T03:23:51;102650.56;;;1.86;86.74
71966;BME280;59836;52.132;5.442;2023-03-03T03:26:18;102642.38;;;1.87;86.78
71966;BME280;59836;52.132;5.442;2023-03-03T03:28:47;102646.88;;;1.87;86.80
71966;BME280;59836;52.132;5.442;2023-03-03T03:31:14;102645.72;;;1.89;86.44
71966;BME280;59836;52.132;5.442;2023-03-03T03:33:40;102646.56;;;1.90;86.90
71966;BME280;59836;52.132;5.442;2023-03-03T03:36:07;102648.56;;;1.88;86.74
71966;BME280;59836;52.132;5.442;2023-03-03T03:38:35;102646.88;;;1.87;86.94
71966;BME280;59836;52.132;5.442;2023-03-03T03:41:03;102643.38;;;1.86;86.96
71966;BME280;59836;52.132;5.442;2023-03-03T03:43:29;102649.22;;;1.90;87.36
71966;BME280;59836;52.132;5.442;2023-03-03T03:45:56;102663.13;;;1.94;87.23
71966;BME280;59836;52.132;5.442;2023-03-03T03:48:22;102661.28;;;1.94;86.90
71966;BME280;59836;52.132;5.442;2023-03-03T03:50:49;102663.63;;;1.97;87.03
71966;BME280;59836;52.132;5.442;2023-03-03T03:53:17;102659.59;;;1.93;87.27
71966;BME280;59836;52.132;5.442;2023-03-03T03:55:44;102662.28;;;1.93;87.19
71966;BME280;59836;52.132;5.442;2023-03-03T03:58:15;102668.47;;;1.94;87.44
71966;BME280;59836;52.132;5.442;2023-03-03T04:00:43;102670.31;;;1.93;86.97
71966;BME280;59836;52.132;5.442;2023-03-03T04:03:10;102667.63;;;1.93;87.12
71966;BME280;59836;52.132;5.442;2023-03-03T04:05:39;102665.63;;;1.95;87.47
71966;BME280;59836;52.132;5.442;2023-03-03T04:08:06;102672.97;;;1.93;87.16
71966;BME280;59836;52.132;5.442;2023-03-03T04:10:33;102671.31;;;1.92;87.66
71966;BME280;59836;52.132;5.442;2023-03-03T04:12:59;102673.84;;;1.94;87.41
71966;BME280;59836;52.132;5.442;2023-03-03T04:15:26;102670.97;;;1.95;87.44
71966;BME280;59836;52.132;5.442;2023-03-03T04:17:52;102670.16;;;1.95;87.46
71966;BME280;59836;52.132;5.442;2023-03-03T04:20:19;102663.78;;;1.96;87.62
71966;BME280;59836;52.132;5.442;2023-03-03T04:22:45;102666.63;;;1.94;87.50
71966;BME280;59836;52.132;5.442;2023-03-03T04:25:15;102666.13;;;1.99;87.46
71966;BME280;59836;52.132;5.442;2023-03-03T04:27:42;102659.78;;;2.00;87.29
71966;BME280;59836;52.132;5.442;2023-03-03T04:30:10;102660.28;;;1.95;87.06
71966;BME280;59836;52.132;5.442;2023-03-03T04:32:36;102668.47;;;1.94;87.54
71966;BME280;59836;52.132;5.442;2023-03-03T04:35:03;102670.97;;;1.95;87.49
71966;BME280;59836;52.132;5.442;2023-03-03T04:37:34;102673.16;;;2.00;87.55
71966;BME280;59836;52.132;5.442;2023-03-03T04:40:00;102660.59;;;2.00;87.49
71966;BME280;59836;52.132;5.442;2023-03-03T04:42:27;102664.97;;;2.01;87.20
71966;BME280;59836;52.132;5.442;2023-03-03T04:44:54;102668.31;;;2.03;87.40
71966;BME280;59836;52.132;5.442;2023-03-03T04:47:20;102670.31;;;2.01;87.89
71966;BME280;59836;52.132;5.442;2023-03-03T04:49:47;102680.00;;;2.02;87.71
71966;BME280;59836;52.132;5.442;2023-03-03T04:52:13;102679.00;;;2.03;87.61
71966;BME280;59836;52.132;5.442;2023-03-03T04:54:39;102673.66;;;2.03;87.91
71966;BME280;59836;52.132;5.442;2023-03-03T04:57:06;102678.19;;;2.03;87.67
71966;BME280;59836;52.132;5.442;2023-03-03T04:59:34;102679.00;;;2.03;87.98
71966;BME280;59836;52.132;5.442;2023-03-03T05:02:01;102687.72;;;2.05;88.18
71966;BME280;59836;52.132;5.442;2023-03-03T05:04:30;102673.84;;;2.02;87.95
71966;BME280;59836;52.132;5.442;2023-03-03T05:06:56;102669.97;;;2.04;88.04
71966;BME280;59836;52.132;5.442;2023-03-03T05:09:23;102668.31;;;2.03;88.10
71966;BME280;59836;52.132;5.442;2023-03-03T05:11:49;102663.94;;;2.02;88.31
71966;BME280;59836;52.132;5.442;2023-03-03T05:14:16;102655.59;;;2.05;88.43
71966;BME280;59836;52.132;5.442;2023-03-03T05:16:43;102658.13;;;2.07;88.38
71966;BME280;59836;52.132;5.442;2023-03-03T05:19:09;102660.59;;;2.09;88.32
71966;BME280;59836;52.132;5.442;2023-03-03T05:21:37;102662.28;;;2.10;88.41
71966;BME280;59836;52.132;5.442;2023-03-03T05:24:11;102667.63;;;2.10;88.26
71966;BME280;59836;52.132;5.442;2023-03-03T05:26:39;102665.63;;;2.12;88.70
71966;BME280;59836;52.132;5.442;2023-03-03T05:29:07;102676.34;;;2.12;88.57
71966;BME280;59836;52.132;5.442;2023-03-03T05:31:33;102663.94;;;2.11;88.63
71966;BME280;59836;52.132;5.442;2023-03-03T05:34:00;102663.28;;;2.09;88.85
71966;BME280;59836;52.132;5.442;2023-03-03T05:36:26;102658.59;;;2.11;89.03
71966;BME280;59836;52.132;5.442;2023-03-03T05:38:52;102657.25;;;2.06;88.90
71966;BME280;59836;52.132;5.442;2023-03-03T05:41:19;102666.28;;;2.05;89.47
71966;BME280;59836;52.132;5.442;2023-03-03T05:43:45;102667.81;;;2.08;89.25
71966;BME280;59836;52.132;5.442;2023-03-03T05:46:12;102667.97;;;2.06;89.48
71966;BME280;59836;52.132;5.442;2023-03-03T05:48:38;102677.84;;;2.06;89.63
71966;BME280;59836;52.132;5.442;2023-03-03T05:51:05;102675.31;;;2.04;89.68
71966;BME280;59836;52.132;5.442;2023-03-03T05:53:31;102673.31;;;2.06;89.55
71966;BME280;59836;52.132;5.442;2023-03-03T05:55:57;102670.31;;;2.10;89.78
71966;BME280;59836;52.132;5.442;2023-03-03T05:58:24;102677.34;;;2.11;89.77
71966;BME280;59836;52.132;5.442;2023-03-03T06:00:50;102670.97;;;2.12;89.55
71966;BME280;59836;52.132;5.442;2023-03-03T06:03:17;102684.03;;;2.15;89.63
71966;BME280;59836;52.132;5.442;2023-03-03T06:05:43;102672.66;;;2.13;89.84
71966;BME280;59836;52.132;5.442;2023-03-03T06:08:10;102679.69;;;2.14;89.87
71966;BME280;59836;52.132;5.442;2023-03-03T06:10:36;102684.19;;;2.13;90.31
71966;BME280;59836;52.132;5.442;2023-03-03T06:13:02;102692.06;;;2.15;90.24
71966;BME280;59836;52.132;5.442;2023-03-03T06:15:29;102687.53;;;2.15;89.96
71966;BME280;59836;52.132;5.442;2023-03-03T06:17:55;102690.06;;;2.17;90.34
71966;BME280;59836;52.132;5.442;2023-03-03T06:20:22;102691.53;;;2.19;89.93
71966;BME280;59836;52.132;5.442;2023-03-03T06:22:48;102685.19;;;2.20;90.19
71966;BME280;59836;52.132;5.442;2023-03-03T06:25:14;102695.06;;;2.20;90.48
71966;BME280;59836;52.132;5.442;2023-03-03T06:27:41;102698.91;;;2.17;90.45
71966;BME280;59836;52.132;5.442;2023-03-03T06:30:08;102694.56;;;2.16;90.51
71966;BME280;59836;52.132;5.442;2023-03-03T06:32:34;102696.22;;;2.17;90.51
71966;BME280;59836;52.132;5.442;2023-03-03T06:35:01;102695.41;;;2.17;90.40
71966;BME280;59836;52.132;5.442;2023-03-03T06:37:27;102703.44;;;2.17;90.86
71966;BME280;59836;52.132;5.442;2023-03-03T06:39:54;102707.78;;;2.18;90.87
71966;BME280;59836;52.132;5.442;2023-03-03T06:42:21;102697.91;;;2.18;90.78
71966;BME280;59836;52.132;5.442;2023-03-03T06:44:49;102709.47;;;2.19;91.12
71966;BME280;59836;52.132;5.442;2023-03-03T06:47:16;102703.94;;;2.20;91.46
71966;BME280;59836;52.132;5.442;2023-03-03T06:49:42;102705.59;;;2.21;91.42
71966;BME280;59836;52.132;5.442;2023-03-03T06:52:19;102711.13;;;2.20;90.79
71966;BME280;59836;52.132;5.442;2023-03-03T06:54:48;102718.66;;;2.25;91.32
71966;BME280;59836;52.132;5.442;2023-03-03T06:57:31;102714.16;;;2.25;90.97
71966;BME280;59836;52.132;5.442;2023-03-03T07:00:09;102716.97;;;2.24;91.25
71966;BME280;59836;52.132;5.442;2023-03-03T07:02:38;102721.19;;;2.26;91.06
71966;BME280;59836;52.132;5.442;2023-03-03T07:05:11;102721.00;;;2.28;91.09
71966;BME280;59836;52.132;5.442;2023-03-03T07:07:39;102728.69;;;2.31;91.42
71966;BME280;59836;52.132;5.442;2023-03-03T07:10:23;102730.38;;;2.32;91.17
71966;BME280;59836;52.132;5.442;2023-03-03T07:12:50;102733.72;;;2.34;91.24
71966;BME280;59836;52.132;5.442;2023-03-03T07:15:21;102742.41;;;2.36;91.31
71966;BME280;59836;52.132;5.442;2023-03-03T07:17:51;102741.25;;;2.39;91.57
71966;BME280;59836;52.132;5.442;2023-03-03T07:22:57;102737.56;;;2.40;91.59
71966;BME280;59836;52.132;5.442;2023-03-03T07:25:31;102743.28;;;2.45;91.46
71966;BME280;59836;52.132;5.442;2023-03-03T07:28:19;102747.63;;;2.46;91.34
71966;BME280;59836;52.132;5.442;2023-03-03T07:30:47;102749.28;;;2.47;91.66
71966;BME280;59836;52.132;5.442;2023-03-03T07:33:22;102754.47;;;2.48;91.65
71966;BME280;59836;52.132;5.442;2023-03-03T07:35:50;102747.28;;;2.49;91.59
71966;BME280;59836;52.132;5.442;2023-03-03T07:38:29;102755.13;;;2.50;91.52
71966;BME280;59836;52.132;5.442;2023-03-03T07:40:58;102753.66;;;2.48;91.67
71966;BME280;59836;52.132;5.442;2023-03-03T07:43:30;102754.31;;;2.50;91.56
71966;BME280;59836;52.132;5.442;2023-03-03T07:48:40;102768.03;;;2.55;91.48
71966;BME280;59836;52.132;5.442;2023-03-03T07:56:46;102769.53;;;2.66;91.67
71966;BME280;59836;52.132;5.442;2023-03-03T07:59:20;102769.19;;;2.69;91.46
71966;BME280;59836;52.132;5.442;2023-03-03T08:01:51;102772.69;;;2.70;91.60
71966;BME280;59836;52.132;5.442;2023-03-03T08:04:47;102772.69;;;2.70;91.55
71966;BME280;59836;52.132;5.442;2023-03-03T08:07:17;102773.88;;;2.75;91.63
71966;BME280;59836;52.132;5.442;2023-03-03T08:09:51;102782.59;;;2.77;92.10
71966;BME280;59836;52.132;5.442;2023-03-03T08:12:36;102785.94;;;2.79;91.58
71966;BME280;59836;52.132;5.442;2023-03-03T08:17:49;102801.16;;;2.87;91.62
71966;BME280;59836;52.132;5.442;2023-03-03T08:20:42;102798.31;;;2.89;91.32
71966;BME280;59836;52.132;5.442;2023-03-03T08:23:10;102804.34;;;2.91;91.73
71966;BME280;59836;52.132;5.442;2023-03-03T08:25:38;102798.81;;;2.92;91.58
71966;BME280;59836;52.132;5.442;2023-03-03T08:28:04;102805.69;;;2.95;91.93
71966;BME280;59836;52.132;5.442;2023-03-03T08:30:30;102800.81;;;2.99;91.46
71966;BME280;59836;52.132;5.442;2023-03-03T08:32:57;102795.44;;;2.99;91.53
71966;BME280;59836;52.132;5.442;2023-03-03T08:35:23;102803.34;;;3.00;91.38
71966;BME280;59836;52.132;5.442;2023-03-03T08:37:50;102807.84;;;3.08;91.34
71966;BME280;59836;52.132;5.442;2023-03-03T08:40:16;102795.75;;;3.12;91.10
71966;BME280;59836;52.132;5.442;2023-03-03T08:42:43;102796.28;;;3.16;90.95
71966;BME280;59836;52.132;5.442;2023-03-03T08:45:09;102807.28;;;3.21;90.79
71966;BME280;59836;52.132;5.442;2023-03-03T08:47:44;102807.97;;;3.23;90.75
71966;BME280;59836;52.132;5.442;2023-03-03T08:50:12;102796.72;;;3.28;90.99
71966;BME280;59836;52.132;5.442;2023-03-03T08:52:39;102800.06;;;3.30;90.69
71966;BME280;59836;52.132;5.442;2023-03-03T08:55:06;102804.09;;;3.34;90.38
71966;BME280;59836;52.132;5.442;2023-03-03T08:57:34;102801.88;;;3.37;90.53
71966;BME280;59836;52.132;5.442;2023-03-03T09:00:00;102795.34;;;3.40;90.81
71966;BME280;59836;52.132;5.442;2023-03-03T09:02:27;102798.34;;;3.45;90.31
71966;BME280;59836;52.132;5.442;2023-03-03T09:04:53;102806.41;;;3.45;90.22
71966;BME280;59836;52.132;5.442;2023-03-03T09:07:20;102800.03;;;3.46;89.94
71966;BME280;59836;52.132;5.442;2023-03-03T09:09:46;102808.41;;;3.51;90.29
71966;BME280;59836;52.132;5.442;2023-03-03T09:12:19;102808.06;;;3.54;89.96
71966;BME280;59836;52.132;5.442;2023-03-03T09:14:49;102806.38;;;3.53;89.44
71966;BME280;59836;52.132;5.442;2023-03-03T09:17:26;102801.84;;;3.54;89.87
71966;BME280;59836;52.132;5.442;2023-03-03T09:19:59;102806.34;;;3.62;89.73
71966;BME280;59836;52.132;5.442;2023-03-03T09:22:28;102803.13;;;3.66;89.69
71966;BME280;59836;52.132;5.442;2023-03-03T09:24:57;102793.53;;;3.72;89.16
71966;BME280;59836;52.132;5.442;2023-03-03T09:27:33;102802.56;;;3.79;89.23
71966;BME280;59836;52.132;5.442;2023-03-03T09:30:11;102806.22;;;3.87;88.74
71966;BME280;59836;52.132;5.442;2023-03-03T09:32:48;102800.81;;;3.95;88.38
71966;BME280;59836;52.132;5.442;2023-03-03T09:35:34;102799.94;;;4.03;88.37
71966;BME280;59836;52.132;5.442;2023-03-03T09:46:58;102806.72;;;4.13;87.50
71966;BME280;59836;52.132;5.442;2023-03-03T09:57:30;102812.06;;;4.22;86.73
71966;BME280;59836;52.132;5.442;2023-03-03T10:11:57;102810.16;;;4.54;86.83
71966;BME280;59836;52.132;5.442;2023-03-03T10:14:32;102812.72;;;4.70;86.56
71966;BME280;59836;52.132;5.442;2023-03-03T10:20:06;102806.78;;;4.75;85.45
71966;BME280;59836;52.132;5.442;2023-03-03T10:22:44;102812.53;;;4.72;84.93
71966;BME280;59836;52.132;5.442;2023-03-03T10:28:20;102809.25;;;5.00;84.68
71966;BME280;59836;52.132;5.442;2023-03-03T10:36:33;102803.69;;;5.61;83.03
71966;BME280;59836;52.132;5.442;2023-03-03T10:39:17;102803.22;;;5.73;82.39
71966;BME280;59836;52.132;5.442;2023-03-03T10:41:57;102806.69;;;5.88;82.33
71966;BME280;59836;52.132;5.442;2023-03-03T10:50:06;102807.00;;;6.30;80.34
71966;BME280;59836;52.132;5.442;2023-03-03T10:52:48;102799.00;;;6.44;79.51
71966;BME280;59836;52.132;5.442;2023-03-03T10:55:30;102799.72;;;6.53;78.65
71966;BME280;59836;52.132;5.442;2023-03-03T10:58:16;102800.88;;;6.65;78.52
71966;BME280;59836;52.132;5.442;2023-03-03T11:06:25;102796.69;;;6.91;77.44
71966;BME280;59836;52.132;5.442;2023-03-03T11:08:55;102792.41;;;7.03;76.31
71966;BME280;59836;52.132;5.442;2023-03-03T11:11:48;102800.44;;;7.18;76.75
71966;BME280;59836;52.132;5.442;2023-03-03T11:14:36;102792.56;;;7.23;75.47
71966;BME280;59836;52.132;5.442;2023-03-03T11:17:30;102783.84;;;7.28;75.57
71966;BME280;59836;52.132;5.442;2023-03-03T11:22:46;102784.41;;;7.59;75.47
71966;BME280;59836;52.132;5.442;2023-03-03T11:25:42;102779.69;;;7.74;74.50
71966;BME280;59836;52.132;5.442;2023-03-03T11:28:40;102775.97;;;7.75;73.15
71966;BME280;59836;52.132;5.442;2023-03-03T11:37:00;102769.63;;;7.48;72.10
71966;BME280;59836;52.132;5.442;2023-03-03T11:39:29;102777.34;;;7.58;71.91
71966;BME280;59836;52.132;5.442;2023-03-03T11:42:25;102773.25;;;7.68;72.23
71966;BME280;59836;52.132;5.442;2023-03-03T11:45:01;102768.72;;;7.76;71.11
71966;BME280;59836;52.132;5.442;2023-03-03T11:47:33;102765.59;;;7.86;70.81
71966;BME280;59836;52.132;5.442;2023-03-03T11:50:25;102773.75;;;7.92;71.01
71966;BME280;59836;52.132;5.442;2023-03-03T11:53:14;102767.28;;;7.80;70.13
71966;BME280;59836;52.132;5.442;2023-03-03T11:55:47;102769.69;;;7.61;70.36
71966;BME280;59836;52.132;5.442;2023-03-03T11:58:28;102768.22;;;7.59;70.59
71966;BME280;59836;52.132;5.442;2023-03-03T12:01:13;102761.38;;;7.56;70.06
71966;BME280;59836;52.132;5.442;2023-03-03T12:04:00;102758.38;;;7.37;69.92
71966;BME280;59836;52.132;5.442;2023-03-03T12:09:51;102761.28;;;7.91;70.12
71966;BME280;59836;52.132;5.442;2023-03-03T12:12:24;102756.50;;;7.93;68.77
71966;BME280;59836;52.132;5.442;2023-03-03T12:15:03;102752.28;;;7.77;68.87
71966;BME280;59836;52.132;5.442;2023-03-03T12:20:31;102746.53;;;8.14;67.37
71966;BME280;59836;52.132;5.442;2023-03-03T12:26:39;102742.22;;;8.47;65.96
71966;BME280;59836;52.132;5.442;2023-03-03T12:29:31;102728.06;;;8.71;65.75
71966;BME280;59836;52.132;5.442;2023-03-03T12:34:50;102735.13;;;8.93;64.62
71966;BME280;59836;52.132;5.442;2023-03-03T12:37:32;102739.25;;;8.95;64.26
71966;BME280;59836;52.132;5.442;2023-03-03T12:40:25;102730.56;;;8.86;64.41
71966;BME280;59836;52.132;5.442;2023-03-03T12:45:45;102728.25;;;8.97;63.25
71966;BME280;59836;52.132;5.442;2023-03-03T12:48:20;102723.88;;;8.96;63.36
71966;BME280;59836;52.132;5.442;2023-03-03T12:51:03;102718.69;;;8.88;62.77
71966;BME280;59836;52.132;5.442;2023-03-03T12:56:35;102718.06;;;8.79;63.41
71966;BME280;59836;52.132;5.442;2023-03-03T12:59:12;102713.50;;;8.66;63.72
71966;BME280;59836;52.132;5.442;2023-03-03T13:04:40;102714.56;;;8.51;64.08
71966;BME280;59836;52.132;5.442;2023-03-03T13:07:15;102716.81;;;8.41;65.59
71966;BME280;59836;52.132;5.442;2023-03-03T13:10:07;102725.97;;;8.26;66.10
71966;BME280;59836;52.132;5.442;2023-03-03T13:12:44;102724.28;;;8.12;66.48
71966;BME280;59836;52.132;5.442;2023-03-03T13:15:18;102720.13;;;8.03;66.63
71966;BME280;59836;52.132;5.442;2023-03-03T13:20:48;102720.72;;;7.78;67.75
71966;BME280;59836;52.132;5.442;2023-03-03T13:23:54;102725.28;;;7.71;67.68
71966;BME280;59836;52.132;5.442;2023-03-03T13:29:14;102721.91;;;7.55;67.33
71966;BME280;59836;52.132;5.442;2023-03-03T13:31:51;102720.00;;;7.56;67.50
71966;BME280;59836;52.132;5.442;2023-03-03T13:37:13;102717.94;;;7.58;67.54
71966;BME280;59836;52.132;5.442;2023-03-03T13:40:02;102717.13;;;7.57;67.47
71966;BME280;59836;52.132;5.442;2023-03-03T13:42:39;102722.94;;;7.54;68.35
71966;BME280;59836;52.132;5.442;2023-03-03T13:45:36;102712.09;;;7.47;68.35
71966;BME280;59836;52.132;5.442;2023-03-03T13:50:56;102718.13;;;7.43;68.75
71966;BME280;59836;52.132;5.442;2023-03-03T13:59:23;102711.44;;;7.38;69.43
71966;BME280;59836;52.132;5.442;2023-03-03T14:05:16;102720.34;;;7.32;69.18
71966;BME280;59836;52.132;5.442;2023-03-03T14:08:00;102711.22;;;7.27;69.57
71966;BME280;59836;52.132;5.442;2023-03-03T14:10:33;102717.59;;;7.19;69.50
71966;BME280;59836;52.132;5.442;2023-03-03T14:13:28;102706.16;;;7.17;69.39
71966;BME280;59836;52.132;5.442;2023-03-03T14:18:29;102709.25;;;7.14;69.57
71966;BME280;59836;52.132;5.442;2023-03-03T14:21:08;102709.47;;;7.12;69.41
71966;BME280;59836;52.132;5.442;2023-03-03T14:23:41;102715.69;;;7.13;69.12
71966;BME280;59836;52.132;5.442;2023-03-03T14:26:12;102701.56;;;7.11;69.18
71966;BME280;59836;52.132;5.442;2023-03-03T14:28:39;102702.59;;;7.09;68.43
71966;BME280;59836;52.132;5.442;2023-03-03T14:31:26;102698.63;;;7.05;68.58
71966;BME280;59836;52.132;5.442;2023-03-03T14:36:44;102689.31;;;7.08;68.33
71966;BME280;59836;52.132;5.442;2023-03-03T14:39:38;102692.66;;;7.10;67.48
71966;BME280;59836;52.132;5.442;2023-03-03T14:42:12;102698.88;;;7.11;67.33
71966;BME280;59836;52.132;5.442;2023-03-03T14:44:55;102691.81;;;7.09;67.45
71966;BME280;59836;52.132;5.442;2023-03-03T14:47:25;102692.44;;;7.12;67.63
71966;BME280;59836;52.132;5.442;2023-03-03T14:49:53;102692.88;;;7.15;67.16
71966;BME280;59836;52.132;5.442;2023-03-03T14:52:28;102681.25;;;7.15;66.88
71966;BME280;59836;52.132;5.442;2023-03-03T14:54:57;102682.91;;;7.16;66.23
71966;BME280;59836;52.132;5.442;2023-03-03T15:00:27;102686.25;;;7.18;66.20
71966;BME280;59836;52.132;5.442;2023-03-03T15:05:50;102680.44;;;7.21;66.60
71966;BME280;59836;52.132;5.442;2023-03-03T15:08:26;102677.97;;;7.19;66.11
71966;BME280;59836;52.132;5.442;2023-03-03T15:11:18;102683.34;;;7.19;66.08
71966;BME280;59836;52.132;5.442;2023-03-03T15:13:45;102669.66;;;7.21;66.32
71966;BME280;59836;52.132;5.442;2023-03-03T15:16:23;102675.03;;;7.21;66.66
71966;BME280;59836;52.132;5.442;2023-03-03T15:19:13;102680.66;;;7.19;66.71
71966;BME280;59836;52.132;5.442;2023-03-03T15:22:06;102677.50;;;7.16;66.82
71966;BME280;59836;52.132;5.442;2023-03-03T15:24:44;102672.50;;;7.13;67.39
71966;BME280;59836;52.132;5.442;2023-03-03T15:27:20;102669.19;;;7.11;67.28
71966;BME280;59836;52.132;5.442;2023-03-03T15:30:22;102666.25;;;7.05;67.37
71966;BME280;59836;52.132;5.442;2023-03-03T15:38:14;102667.06;;;6.99;67.28
71966;BME280;59836;52.132;5.442;2023-03-03T15:40:48;102663.72;;;6.97;67.55
71966;BME280;59836;52.132;5.442;2023-03-03T15:43:25;102664.13;;;6.94;66.68
71966;BME280;59836;52.132;5.442;2023-03-03T15:46:17;102657.47;;;6.90;67.03
71966;BME280;59836;52.132;5.442;2023-03-03T15:49:28;102663.28;;;6.87;67.26
71966;BME280;59836;52.132;5.442;2023-03-03T15:54:55;102657.66;;;6.82;67.17
71966;BME280;59836;52.132;5.442;2023-03-03T15:57:58;102660.34;;;6.82;67.33
71966;BME280;59836;52.132;5.442;2023-03-03T16:03:35;102656.97;;;6.73;67.25